sensor_id;sensor_type;location;lat;lon;timestamp;pressure;altitude;pressure_sealevel;temperature;humidity
33845;BME280;20145;43.118;25.694;2024-01-30T00:05:33;101880.41;;;1.93;90.60
33845;BME280;20145;43.118;25.694;2024-01-30T00:07:59;101895.50;;;2.04;90.11
33845;BME280;20145;43.118;25.694;2024-01-30T00:10:24;101877.78;;;1.92;90.18
33845;BME280;20145;43.118;25.694;2024-01-30T00:12:50;101891.47;;;2.07;89.74
33845;BME280;20145;43.118;25.694;2024-01-30T00:15:16;101890.88;;;2.11;89.98
33845;BME280;20145;43.118;25.694;2024-01-30T00:17:41;101901.75;;;2.09;90.17
33845;BME280;20145;43.118;25.694;2024-01-30T00:20:08;101880.91;;;2.01;89.37
33845;BME280;20145;43.118;25.694;2024-01-30T00:22:34;101880.59;;;1.96;90.52
33845;BME280;20145;43.118;25.694;2024-01-30T00:25:00;101888.16;;;1.82;91.25
33845;BME280;20145;43.118;25.694;2024-01-30T00:27:26;101870.66;;;1.73;91.00
33845;BME280;20145;43.118;25.694;2024-01-30T00:29:53;101891.59;;;1.69;91.56
33845;BME280;20145;43.118;25.694;2024-01-30T00:32:18;101895.13;;;1.71;92.60
33845;BME280;20145;43.118;25.694;2024-01-30T00:34:45;101896.00;;;1.71;92.71
33845;BME280;20145;43.118;25.694;2024-01-30T00:37:11;101863.00;;;1.46;92.68
33845;BME280;20145;43.118;25.694;2024-01-30T00:39:37;101886.31;;;1.66;92.63
33845;BME280;20145;43.118;25.694;2024-01-30T00:42:02;101896.66;;;1.69;92.41
33845;BME280;20145;43.118;25.694;2024-01-30T00:44:29;101881.81;;;1.62;92.05
33845;BME280;20145;43.118;25.694;2024-01-30T00:46:55;101890.72;;;1.68;92.16
33845;BME280;20145;43.118;25.694;2024-01-30T00:49:20;101896.19;;;1.74;91.57
33845;BME280;20145;43.118;25.694;2024-01-30T00:51:47;101903.25;;;1.78;91.87
33845;BME280;20145;43.118;25.694;2024-01-30T00:54:12;101894.13;;;1.82;91.90
33845;BME280;20145;43.118;25.694;2024-01-30T00:56:38;101874.19;;;1.75;91.73
33845;BME280;20145;43.118;25.694;2024-01-30T00:59:04;101873.19;;;1.86;91.18
33845;BME280;20145;43.118;25.694;2024-01-30T01:01:29;101889.91;;;1.96;91.07
33845;BME280;20145;43.118;25.694;2024-01-30T01:03:55;101886.91;;;1.75;91.68
33845;BME280;20145;43.118;25.694;2024-01-30T01:06:20;101884.81;;;1.83;91.00
33845;BME280;20145;43.118;25.694;2024-01-30T01:08:46;101885.31;;;1.77;90.68
33845;BME280;20145;43.118;25.694;2024-01-30T01:11:12;101875.94;;;1.76;91.21
33845;BME280;20145;43.118;25.694;2024-01-30T01:13:38;101871.63;;;1.75;91.19
33845;BME280;20145;43.118;25.694;2024-01-30T01:16:04;101846.09;;;1.60;91.28
33845;BME280;20145;43.118;25.694;2024-01-30T01:18:30;101861.47;;;1.75;90.69
33845;BME280;20145;43.118;25.694;2024-01-30T01:20:56;101862.59;;;1.80;90.19
33845;BME280;20145;43.118;25.694;2024-01-30T01:23:23;101871.91;;;1.79;90.37
33845;BME280;20145;43.118;25.694;2024-01-30T01:25:49;101866.44;;;1.60;92.13
33845;BME280;20145;43.118;25.694;2024-01-30T01:28:14;101856.66;;;1.53;91.85
33845;BME280;20145;43.118;25.694;2024-01-30T01:30:40;101862.31;;;1.49;92.04
33845;BME280;20145;43.118;25.694;2024-01-30T01:33:06;101841.19;;;1.37;92.14
33845;BME280;20145;43.118;25.694;2024-01-30T01:35:32;101831.81;;;1.22;92.35
33845;BME280;20145;43.118;25.694;2024-01-30T01:37:57;101870.44;;;1.43;92.43
33845;BME280;20145;43.118;25.694;2024-01-30T01:40:26;101874.66;;;1.56;92.66
33845;BME280;20145;43.118;25.694;2024-01-30T01:42:54;101881.13;;;1.64;91.65
33845;BME280;20145;43.118;25.694;2024-01-30T01:45:20;101874.69;;;1.69;91.84
33845;BME280;20145;43.118;25.694;2024-01-30T01:47:55;101877.88;;;1.80;90.98
33845;BME280;20145;43.118;25.694;2024-01-30T01:50:21;101881.13;;;1.77;90.69
33845;BME280;20145;43.118;25.694;2024-01-30T01:52:47;101862.16;;;1.59;91.08
33845;BME280;20145;43.118;25.694;2024-01-30T01:55:15;101869.59;;;1.69;91.11
33845;BME280;20145;43.118;25.694;2024-01-30T01:57:41;101880.16;;;1.75;91.76
33845;BME280;20145;43.118;25.694;2024-01-30T02:00:08;101876.63;;;1.73;91.03
33845;BME280;20145;43.118;25.694;2024-01-30T02:02:36;101863.81;;;1.72;91.16
33845;BME280;20145;43.118;25.694;2024-01-30T02:05:02;101884.94;;;1.84;90.84
33845;BME280;20145;43.118;25.694;2024-01-30T02:07:28;101874.44;;;1.66;91.18
33845;BME280;20145;43.118;25.694;2024-01-30T02:09:55;101873.00;;;1.70;90.90
33845;BME280;20145;43.118;25.694;2024-01-30T02:12:20;101870.28;;;1.67;90.68
33845;BME280;20145;43.118;25.694;2024-01-30T02:14:47;101872.72;;;1.78;90.90
33845;BME280;20145;43.118;25.694;2024-01-30T02:17:13;101871.53;;;1.60;90.56
33845;BME280;20145;43.118;25.694;2024-01-30T02:19:39;101872.13;;;1.69;91.40
33845;BME280;20145;43.118;25.694;2024-01-30T02:22:05;101852.53;;;1.68;91.10
33845;BME280;20145;43.118;25.694;2024-01-30T02:24:31;101873.19;;;1.86;90.42
33845;BME280;20145;43.118;25.694;2024-01-30T02:26:59;101875.25;;;1.92;90.57
33845;BME280;20145;43.118;25.694;2024-01-30T02:29:24;101881.22;;;1.92;90.66
33845;BME280;20145;43.118;25.694;2024-01-30T02:31:50;101847.34;;;1.80;90.00
33845;BME280;20145;43.118;25.694;2024-01-30T02:34:19;101857.81;;;1.85;90.41
33845;BME280;20145;43.118;25.694;2024-01-30T02:36:45;101877.69;;;1.90;90.39
33845;BME280;20145;43.118;25.694;2024-01-30T02:39:11;101870.03;;;1.90;90.27
33845;BME280;20145;43.118;25.694;2024-01-30T02:41:37;101861.84;;;1.94;90.75
33845;BME280;20145;43.118;25.694;2024-01-30T02:44:03;101864.94;;;2.04;89.72
33845;BME280;20145;43.118;25.694;2024-01-30T02:46:29;101877.19;;;1.96;90.27
33845;BME280;20145;43.118;25.694;2024-01-30T02:48:55;101861.22;;;1.85;89.83
33845;BME280;20145;43.118;25.694;2024-01-30T02:51:21;101855.97;;;1.82;90.92
33845;BME280;20145;43.118;25.694;2024-01-30T02:53:47;101866.94;;;1.94;90.58
33845;BME280;20145;43.118;25.694;2024-01-30T02:56:13;101872.03;;;1.81;90.04
33845;BME280;20145;43.118;25.694;2024-01-30T02:58:39;101866.06;;;1.81;90.83
33845;BME280;20145;43.118;25.694;2024-01-30T03:01:06;101859.59;;;1.72;91.17
33845;BME280;20145;43.118;25.694;2024-01-30T03:03:32;101858.31;;;1.79;90.76
33845;BME280;20145;43.118;25.694;2024-01-30T03:06:01;101865.94;;;1.92;90.11
33845;BME280;20145;43.118;25.694;2024-01-30T03:08:27;101852.16;;;1.89;89.95
33845;BME280;20145;43.118;25.694;2024-01-30T03:10:53;101837.56;;;1.86;90.48
33845;BME280;20145;43.118;25.694;2024-01-30T03:13:19;101857.31;;;1.90;90.18
33845;BME280;20145;43.118;25.694;2024-01-30T03:15:45;101869.66;;;1.97;89.87
33845;BME280;20145;43.118;25.694;2024-01-30T03:18:10;101849.81;;;1.78;89.92
33845;BME280;20145;43.118;25.694;2024-01-30T03:20:37;101845.41;;;1.76;90.08
33845;BME280;20145;43.118;25.694;2024-01-30T03:23:03;101845.59;;;1.79;89.37
33845;BME280;20145;43.118;25.694;2024-01-30T03:25:28;101867.13;;;1.84;90.32
33845;BME280;20145;43.118;25.694;2024-01-30T03:27:54;101859.09;;;1.78;91.25
33845;BME280;20145;43.118;25.694;2024-01-30T03:30:19;101859.38;;;1.83;90.59
33845;BME280;20145;43.118;25.694;2024-01-30T03:32:45;101814.09;;;1.64;90.61
33845;BME280;20145;43.118;25.694;2024-01-30T03:35:11;101869.41;;;2.08;90.12
33845;BME280;20145;43.118;25.694;2024-01-30T03:37:36;101865.69;;;2.16;90.15
33845;BME280;20145;43.118;25.694;2024-01-30T03:40:02;101873.03;;;2.25;88.60
33845;BME280;20145;43.118;25.694;2024-01-30T03:42:28;101866.38;;;2.13;89.69
33845;BME280;20145;43.118;25.694;2024-01-30T03:44:54;101870.78;;;2.16;88.48
33845;BME280;20145;43.118;25.694;2024-01-30T03:47:21;101861.38;;;2.15;88.38
33845;BME280;20145;43.118;25.694;2024-01-30T03:49:46;101829.13;;;1.87;88.49
33845;BME280;20145;43.118;25.694;2024-01-30T03:52:13;101864.56;;;2.11;89.35
33845;BME280;20145;43.118;25.694;2024-01-30T03:54:40;101851.34;;;1.90;88.91
33845;BME280;20145;43.118;25.694;2024-01-30T03:57:05;101852.72;;;1.98;88.17
33845;BME280;20145;43.118;25.694;2024-01-30T03:59:32;101851.16;;;2.00;88.47
33845;BME280;20145;43.118;25.694;2024-01-30T04:01:58;101876.69;;;2.01;88.90
33845;BME280;20145;43.118;25.694;2024-01-30T04:04:25;101827.41;;;1.73;88.99
33845;BME280;20145;43.118;25.694;2024-01-30T04:06:51;101870.66;;;1.86;89.40
33845;BME280;20145;43.118;25.694;2024-01-30T04:09:17;101854.69;;;1.75;89.44
33845;BME280;20145;43.118;25.694;2024-01-30T04:11:44;101848.31;;;1.69;89.03
33845;BME280;20145;43.118;25.694;2024-01-30T04:14:10;101866.75;;;1.78;89.80
33845;BME280;20145;43.118;25.694;2024-01-30T04:16:36;101848.25;;;1.54;90.51
33845;BME280;20145;43.118;25.694;2024-01-30T04:19:02;101867.03;;;1.69;89.63
33845;BME280;20145;43.118;25.694;2024-01-30T04:21:27;101873.38;;;1.76;90.51
33845;BME280;20145;43.118;25.694;2024-01-30T04:23:53;101852.84;;;1.60;89.21
33845;BME280;20145;43.118;25.694;2024-01-30T04:26:19;101860.28;;;1.56;89.62
33845;BME280;20145;43.118;25.694;2024-01-30T04:28:45;101883.75;;;1.66;89.61
33845;BME280;20145;43.118;25.694;2024-01-30T04:31:11;101870.34;;;1.68;90.21
33845;BME280;20145;43.118;25.694;2024-01-30T04:33:37;101853.50;;;1.44;89.87
33845;BME280;20145;43.118;25.694;2024-01-30T04:36:03;101874.00;;;1.59;89.43
33845;BME280;20145;43.118;25.694;2024-01-30T04:38:29;101890.31;;;1.62;89.17
33845;BME280;20145;43.118;25.694;2024-01-30T04:40:55;101877.22;;;1.56;90.20
33845;BME280;20145;43.118;25.694;2024-01-30T04:43:21;101881.91;;;1.63;90.05
33845;BME280;20145;43.118;25.694;2024-01-30T04:45:47;101872.91;;;1.42;89.73
33845;BME280;20145;43.118;25.694;2024-01-30T04:48:12;101860.28;;;1.43;89.70
33845;BME280;20145;43.118;25.694;2024-01-30T04:50:39;101883.47;;;1.61;89.57
33845;BME280;20145;43.118;25.694;2024-01-30T04:53:04;101891.31;;;1.64;89.45
33845;BME280;20145;43.118;25.694;2024-01-30T04:55:30;101879.47;;;1.65;89.52
33845;BME280;20145;43.118;25.694;2024-01-30T04:57:56;101853.31;;;1.41;88.55
33845;BME280;20145;43.118;25.694;2024-01-30T05:00:22;101887.38;;;1.56;89.40
33845;BME280;20145;43.118;25.694;2024-01-30T05:05:52;101891.06;;;1.34;90.44
33845;BME280;20145;43.118;25.694;2024-01-30T05:08:17;101881.97;;;1.25;90.62
33845;BME280;20145;43.118;25.694;2024-01-30T05:10:43;101886.97;;;1.37;91.07
33845;BME280;20145;43.118;25.694;2024-01-30T05:13:10;101872.28;;;1.32;90.47
33845;BME280;20145;43.118;25.694;2024-01-30T05:15:35;101879.38;;;1.50;90.70
33845;BME280;20145;43.118;25.694;2024-01-30T05:18:02;101883.34;;;1.46;90.05
33845;BME280;20145;43.118;25.694;2024-01-30T05:20:28;101888.44;;;1.46;90.56
33845;BME280;20145;43.118;25.694;2024-01-30T05:22:54;101863.59;;;1.29;90.64
33845;BME280;20145;43.118;25.694;2024-01-30T05:25:19;101884.72;;;1.28;91.10
33845;BME280;20145;43.118;25.694;2024-01-30T05:27:45;101875.81;;;1.34;90.08
33845;BME280;20145;43.118;25.694;2024-01-30T05:30:11;101868.00;;;1.31;90.03
33845;BME280;20145;43.118;25.694;2024-01-30T05:32:37;101880.41;;;1.40;90.48
33845;BME280;20145;43.118;25.694;2024-01-30T05:35:03;101877.88;;;1.40;90.34
33845;BME280;20145;43.118;25.694;2024-01-30T05:37:29;101869.44;;;1.41;89.68
33845;BME280;20145;43.118;25.694;2024-01-30T05:39:55;101814.88;;;1.09;89.02
33845;BME280;20145;43.118;25.694;2024-01-30T05:42:21;101838.44;;;1.20;89.98
33845;BME280;20145;43.118;25.694;2024-01-30T05:44:46;101869.44;;;1.41;89.23
33845;BME280;20145;43.118;25.694;2024-01-30T05:47:12;101873.19;;;1.46;89.20
33845;BME280;20145;43.118;25.694;2024-01-30T05:49:37;101875.91;;;1.49;89.12
33845;BME280;20145;43.118;25.694;2024-01-30T05:52:04;101870.56;;;1.45;89.01
33845;BME280;20145;43.118;25.694;2024-01-30T05:54:32;101877.59;;;1.49;89.17
33845;BME280;20145;43.118;25.694;2024-01-30T05:56:58;101893.75;;;1.63;89.08
33845;BME280;20145;43.118;25.694;2024-01-30T05:59:24;101887.47;;;1.58;88.21
33845;BME280;20145;43.118;25.694;2024-01-30T06:01:50;101867.59;;;1.52;88.30
33845;BME280;20145;43.118;25.694;2024-01-30T06:04:15;101898.25;;;1.67;88.28
33845;BME280;20145;43.118;25.694;2024-01-30T06:06:41;101873.50;;;1.51;88.36
33845;BME280;20145;43.118;25.694;2024-01-30T06:09:07;101907.34;;;1.63;88.65
33845;BME280;20145;43.118;25.694;2024-01-30T06:11:39;101902.84;;;1.59;88.66
33845;BME280;20145;43.118;25.694;2024-01-30T06:14:06;101878.09;;;1.56;89.33
33845;BME280;20145;43.118;25.694;2024-01-30T06:16:31;101891.78;;;1.59;89.03
33845;BME280;20145;43.118;25.694;2024-01-30T06:18:57;101874.66;;;1.56;89.08
33845;BME280;20145;43.118;25.694;2024-01-30T06:21:23;101879.44;;;1.51;89.44
33845;BME280;20145;43.118;25.694;2024-01-30T06:23:49;101882.50;;;1.59;88.42
33845;BME280;20145;43.118;25.694;2024-01-30T06:26:15;101898.94;;;1.64;88.95
33845;BME280;20145;43.118;25.694;2024-01-30T06:28:41;101902.06;;;1.73;88.36
33845;BME280;20145;43.118;25.694;2024-01-30T06:31:07;101876.03;;;1.64;87.91
33845;BME280;20145;43.118;25.694;2024-01-30T06:33:32;101898.94;;;1.77;88.16
33845;BME280;20145;43.118;25.694;2024-01-30T06:35:58;101900.19;;;1.71;89.30
33845;BME280;20145;43.118;25.694;2024-01-30T06:38:24;101877.72;;;1.64;88.49
33845;BME280;20145;43.118;25.694;2024-01-30T06:40:49;101909.88;;;1.63;88.71
33845;BME280;20145;43.118;25.694;2024-01-30T06:43:15;101899.13;;;1.67;88.49
33845;BME280;20145;43.118;25.694;2024-01-30T06:45:41;101906.78;;;1.67;88.52
33845;BME280;20145;43.118;25.694;2024-01-30T06:48:07;101900.88;;;1.68;88.86
33845;BME280;20145;43.118;25.694;2024-01-30T06:50:33;101909.50;;;1.84;88.39
33845;BME280;20145;43.118;25.694;2024-01-30T06:52:59;101911.19;;;1.83;87.84
33845;BME280;20145;43.118;25.694;2024-01-30T06:55:24;101904.59;;;1.73;88.39
33845;BME280;20145;43.118;25.694;2024-01-30T06:57:50;101898.03;;;1.77;87.42
33845;BME280;20145;43.118;25.694;2024-01-30T07:00:16;101902.06;;;1.87;87.83
33845;BME280;20145;43.118;25.694;2024-01-30T07:02:42;101899.41;;;1.85;87.93
33845;BME280;20145;43.118;25.694;2024-01-30T07:05:07;101913.91;;;1.86;88.00
33845;BME280;20145;43.118;25.694;2024-01-30T07:07:33;101920.88;;;1.75;87.66
33845;BME280;20145;43.118;25.694;2024-01-30T07:09:59;101921.25;;;1.95;87.70
33845;BME280;20145;43.118;25.694;2024-01-30T07:12:24;101921.25;;;1.95;87.84
33845;BME280;20145;43.118;25.694;2024-01-30T07:14:52;101928.41;;;2.14;86.60
33845;BME280;20145;43.118;25.694;2024-01-30T07:17:17;101914.09;;;2.03;87.06
33845;BME280;20145;43.118;25.694;2024-01-30T07:19:43;101905.28;;;1.97;87.16
33845;BME280;20145;43.118;25.694;2024-01-30T07:22:09;101910.84;;;2.18;86.76
33845;BME280;20145;43.118;25.694;2024-01-30T07:24:35;101919.63;;;2.37;86.54
33845;BME280;20145;43.118;25.694;2024-01-30T07:27:01;101901.19;;;2.41;85.84
33845;BME280;20145;43.118;25.694;2024-01-30T07:29:27;101903.81;;;2.56;84.32
33845;BME280;20145;43.118;25.694;2024-01-30T07:31:55;101898.44;;;2.66;83.64
33845;BME280;20145;43.118;25.694;2024-01-30T07:34:21;101920.31;;;2.90;83.44
33845;BME280;20145;43.118;25.694;2024-01-30T07:36:46;101927.78;;;2.87;82.80
33845;BME280;20145;43.118;25.694;2024-01-30T07:39:12;101889.94;;;2.65;83.10
33845;BME280;20145;43.118;25.694;2024-01-30T07:41:38;101926.69;;;2.97;83.09
33845;BME280;20145;43.118;25.694;2024-01-30T07:44:03;101931.44;;;3.06;81.75
33845;BME280;20145;43.118;25.694;2024-01-30T07:46:29;101928.66;;;2.88;81.98
33845;BME280;20145;43.118;25.694;2024-01-30T07:48:55;101931.41;;;2.91;81.45
33845;BME280;20145;43.118;25.694;2024-01-30T07:51:22;101912.16;;;2.40;82.67
33845;BME280;20145;43.118;25.694;2024-01-30T07:53:48;101924.75;;;2.65;83.51
33845;BME280;20145;43.118;25.694;2024-01-30T07:56:13;101920.44;;;2.64;82.88
33845;BME280;20145;43.118;25.694;2024-01-30T07:58:39;101912.63;;;2.61;82.99
33845;BME280;20145;43.118;25.694;2024-01-30T08:01:05;101920.16;;;2.59;83.39
33845;BME280;20145;43.118;25.694;2024-01-30T08:03:30;101938.31;;;2.51;83.84
33845;BME280;20145;43.118;25.694;2024-01-30T08:05:56;101949.13;;;2.33;84.95
33845;BME280;20145;43.118;25.694;2024-01-30T08:08:22;101940.13;;;2.38;84.41
33845;BME280;20145;43.118;25.694;2024-01-30T08:10:47;101935.47;;;2.46;84.51
33845;BME280;20145;43.118;25.694;2024-01-30T08:13:14;101914.22;;;2.32;84.55
33845;BME280;20145;43.118;25.694;2024-01-30T08:15:40;101930.28;;;2.58;84.62
33845;BME280;20145;43.118;25.694;2024-01-30T08:18:06;101938.75;;;2.72;84.02
33845;BME280;20145;43.118;25.694;2024-01-30T08:20:32;101899.53;;;2.41;83.68
33845;BME280;20145;43.118;25.694;2024-01-30T08:22:59;101941.00;;;2.67;84.03
33845;BME280;20145;43.118;25.694;2024-01-30T08:25:26;101913.81;;;2.53;84.05
33845;BME280;20145;43.118;25.694;2024-01-30T08:27:51;101916.03;;;2.61;82.50
33845;BME280;20145;43.118;25.694;2024-01-30T08:30:17;101941.56;;;2.76;82.42
33845;BME280;20145;43.118;25.694;2024-01-30T08:32:43;101927.13;;;2.49;82.61
33845;BME280;20145;43.118;25.694;2024-01-30T08:35:08;101920.09;;;2.44;83.13
33845;BME280;20145;43.118;25.694;2024-01-30T08:37:34;101938.16;;;2.62;83.66
33845;BME280;20145;43.118;25.694;2024-01-30T08:40:00;101934.88;;;2.50;82.62
33845;BME280;20145;43.118;25.694;2024-01-30T08:42:27;101940.75;;;2.49;83.13
33845;BME280;20145;43.118;25.694;2024-01-30T08:44:58;101941.41;;;2.60;83.50
33845;BME280;20145;43.118;25.694;2024-01-30T08:47:24;101948.09;;;2.58;83.44
33845;BME280;20145;43.118;25.694;2024-01-30T08:49:50;101943.00;;;2.58;82.98
33845;BME280;20145;43.118;25.694;2024-01-30T08:52:16;101901.84;;;2.52;82.72
33845;BME280;20145;43.118;25.694;2024-01-30T08:54:42;101915.44;;;2.52;82.85
33845;BME280;20145;43.118;25.694;2024-01-30T08:57:09;101887.53;;;2.26;84.35
33845;BME280;20145;43.118;25.694;2024-01-30T08:59:35;101945.06;;;2.63;83.33
33845;BME280;20145;43.118;25.694;2024-01-30T09:02:00;101943.41;;;2.51;83.69
33845;BME280;20145;43.118;25.694;2024-01-30T09:04:26;101908.97;;;2.29;83.89
33845;BME280;20145;43.118;25.694;2024-01-30T09:06:51;101938.97;;;2.61;83.20
33845;BME280;20145;43.118;25.694;2024-01-30T09:09:17;101909.31;;;2.35;83.36
33845;BME280;20145;43.118;25.694;2024-01-30T09:11:43;101929.28;;;2.56;83.03
33845;BME280;20145;43.118;25.694;2024-01-30T09:14:09;101908.28;;;2.60;84.18
33845;BME280;20145;43.118;25.694;2024-01-30T09:16:35;101922.19;;;2.65;83.37
33845;BME280;20145;43.118;25.694;2024-01-30T09:19:00;101888.50;;;2.56;82.77
33845;BME280;20145;43.118;25.694;2024-01-30T09:21:26;101924.22;;;2.71;82.40
33845;BME280;20145;43.118;25.694;2024-01-30T09:23:54;101909.44;;;2.65;83.27
33845;BME280;20145;43.118;25.694;2024-01-30T09:26:20;101920.91;;;2.72;82.48
33845;BME280;20145;43.118;25.694;2024-01-30T09:28:46;101896.28;;;2.72;82.16
33845;BME280;20145;43.118;25.694;2024-01-30T09:31:12;101898.41;;;2.79;81.97
33845;BME280;20145;43.118;25.694;2024-01-30T09:33:38;101880.81;;;2.69;82.15
33845;BME280;20145;43.118;25.694;2024-01-30T09:36:05;101905.34;;;2.82;81.95
33845;BME280;20145;43.118;25.694;2024-01-30T09:38:31;101848.50;;;2.55;81.86
33845;BME280;20145;43.118;25.694;2024-01-30T09:41:02;101877.16;;;2.94;82.26
33845;BME280;20145;43.118;25.694;2024-01-30T09:43:33;101904.91;;;3.17;80.92
33845;BME280;20145;43.118;25.694;2024-01-30T09:46:00;101885.19;;;3.00;81.49
33845;BME280;20145;43.118;25.694;2024-01-30T09:48:30;101892.84;;;3.15;81.42
33845;BME280;20145;43.118;25.694;2024-01-30T09:50:57;101868.50;;;3.20;80.25
33845;BME280;20145;43.118;25.694;2024-01-30T09:53:23;101892.75;;;3.28;79.84
33845;BME280;20145;43.118;25.694;2024-01-30T09:55:50;101867.34;;;3.15;79.28
33845;BME280;20145;43.118;25.694;2024-01-30T09:58:18;101908.31;;;3.32;79.91
33845;BME280;20145;43.118;25.694;2024-01-30T10:04:07;101875.09;;;3.16;80.52
33845;BME280;20145;43.118;25.694;2024-01-30T10:06:32;101897.06;;;3.29;79.54
33845;BME280;20145;43.118;25.694;2024-01-30T10:08:58;101871.38;;;3.11;80.33
33845;BME280;20145;43.118;25.694;2024-01-30T10:11:25;101882.22;;;3.22;80.30
33845;BME280;20145;43.118;25.694;2024-01-30T10:13:51;101874.81;;;3.26;80.32
33845;BME280;20145;43.118;25.694;2024-01-30T10:16:16;101891.53;;;3.51;79.81
33845;BME280;20145;43.118;25.694;2024-01-30T10:18:42;101879.56;;;3.20;80.33
33845;BME280;20145;43.118;25.694;2024-01-30T10:21:08;101862.06;;;3.26;79.16
33845;BME280;20145;43.118;25.694;2024-01-30T10:23:35;101855.53;;;3.31;79.29
33845;BME280;20145;43.118;25.694;2024-01-30T10:26:07;101885.63;;;3.37;79.24
33845;BME280;20145;43.118;25.694;2024-01-30T10:28:33;101900.59;;;3.46;80.12
33845;BME280;20145;43.118;25.694;2024-01-30T10:31:03;101870.06;;;3.32;79.60
33845;BME280;20145;43.118;25.694;2024-01-30T10:33:32;101880.09;;;3.44;79.12
33845;BME280;20145;43.118;25.694;2024-01-30T10:36:05;101844.91;;;3.39;78.64
33845;BME280;20145;43.118;25.694;2024-01-30T10:38:32;101886.94;;;3.75;78.27
33845;BME280;20145;43.118;25.694;2024-01-30T10:40:59;101870.06;;;3.32;80.21
33845;BME280;20145;43.118;25.694;2024-01-30T10:43:33;101892.13;;;3.62;79.08
33845;BME280;20145;43.118;25.694;2024-01-30T10:46:20;101878.19;;;3.71;78.37
33845;BME280;20145;43.118;25.694;2024-01-30T10:48:54;101872.91;;;3.83;77.82
33845;BME280;20145;43.118;25.694;2024-01-30T10:51:22;101876.16;;;3.80;76.95
33845;BME280;20145;43.118;25.694;2024-01-30T10:53:49;101883.06;;;3.52;77.41
33845;BME280;20145;43.118;25.694;2024-01-30T10:56:16;101881.69;;;3.42;77.82
33845;BME280;20145;43.118;25.694;2024-01-30T10:58:41;101888.25;;;3.53;78.72
33845;BME280;20145;43.118;25.694;2024-01-30T11:01:07;101866.25;;;3.41;79.26
33845;BME280;20145;43.118;25.694;2024-01-30T11:03:34;101863.13;;;3.45;78.83
33845;BME280;20145;43.118;25.694;2024-01-30T11:06:02;101883.69;;;3.48;78.70
33845;BME280;20145;43.118;25.694;2024-01-30T11:08:28;101867.94;;;3.40;79.48
33845;BME280;20145;43.118;25.694;2024-01-30T11:10:58;101850.94;;;3.41;78.45
33845;BME280;20145;43.118;25.694;2024-01-30T11:13:30;101868.38;;;3.48;78.79
33845;BME280;20145;43.118;25.694;2024-01-30T11:16:03;101858.06;;;3.46;79.09
33845;BME280;20145;43.118;25.694;2024-01-30T11:18:31;101865.03;;;3.64;77.92
33845;BME280;20145;43.118;25.694;2024-01-30T11:20:58;101858.31;;;3.66;78.41
33845;BME280;20145;43.118;25.694;2024-01-30T11:23:26;101848.19;;;3.67;77.22
33845;BME280;20145;43.118;25.694;2024-01-30T11:25:56;101847.66;;;3.73;77.99
33845;BME280;20145;43.118;25.694;2024-01-30T11:28:23;101839.34;;;3.61;77.78
33845;BME280;20145;43.118;25.694;2024-01-30T11:30:49;101837.22;;;3.53;76.64
33845;BME280;20145;43.118;25.694;2024-01-30T11:33:30;101845.47;;;3.64;76.71
33845;BME280;20145;43.118;25.694;2024-01-30T11:35:58;101844.78;;;3.52;77.14
33845;BME280;20145;43.118;25.694;2024-01-30T11:38:26;101839.50;;;3.49;76.83
33845;BME280;20145;43.118;25.694;2024-01-30T11:40:53;101836.06;;;3.63;78.08
33845;BME280;20145;43.118;25.694;2024-01-30T11:43:20;101837.81;;;3.64;76.73
33845;BME280;20145;43.118;25.694;2024-01-30T11:45:45;101838.97;;;3.69;76.81
33845;BME280;20145;43.118;25.694;2024-01-30T11:48:14;101815.81;;;3.66;76.37
33845;BME280;20145;43.118;25.694;2024-01-30T11:50:40;101824.69;;;3.73;75.86
33845;BME280;20145;43.118;25.694;2024-01-30T11:53:06;101822.38;;;3.77;75.91
33845;BME280;20145;43.118;25.694;2024-01-30T11:55:32;101816.91;;;3.71;75.21
33845;BME280;20145;43.118;25.694;2024-01-30T11:57:59;101811.31;;;3.62;75.98
33845;BME280;20145;43.118;25.694;2024-01-30T12:00:25;101823.09;;;3.75;75.34
33845;BME280;20145;43.118;25.694;2024-01-30T12:02:52;101734.59;;;3.28;75.45
33845;BME280;20145;43.118;25.694;2024-01-30T12:05:24;101785.91;;;3.49;76.28
33845;BME280;20145;43.118;25.694;2024-01-30T12:07:50;101812.72;;;3.72;76.32
33845;BME280;20145;43.118;25.694;2024-01-30T12:10:17;101782.81;;;3.69;75.90
33845;BME280;20145;43.118;25.694;2024-01-30T12:12:47;101806.13;;;3.92;75.55
33845;BME280;20145;43.118;25.694;2024-01-30T12:15:15;101812.75;;;3.88;73.29
33845;BME280;20145;43.118;25.694;2024-01-30T12:17:41;101809.50;;;3.91;74.39
33845;BME280;20145;43.118;25.694;2024-01-30T12:22:40;101786.50;;;3.91;74.15
33845;BME280;20145;43.118;25.694;2024-01-30T12:25:11;101796.38;;;3.85;72.98
33845;BME280;20145;43.118;25.694;2024-01-30T12:27:37;101795.81;;;3.90;74.44
33845;BME280;20145;43.118;25.694;2024-01-30T12:30:08;101791.72;;;4.09;73.55
33845;BME280;20145;43.118;25.694;2024-01-30T12:32:41;101779.50;;;4.03;72.52
33845;BME280;20145;43.118;25.694;2024-01-30T12:35:11;101776.38;;;3.92;72.55
33845;BME280;20145;43.118;25.694;2024-01-30T12:37:37;101786.03;;;3.98;72.20
33845;BME280;20145;43.118;25.694;2024-01-30T12:40:04;101771.91;;;3.88;72.38
33845;BME280;20145;43.118;25.694;2024-01-30T12:42:29;101780.13;;;3.83;73.03
33845;BME280;20145;43.118;25.694;2024-01-30T12:44:57;101760.56;;;3.83;72.57
33845;BME280;20145;43.118;25.694;2024-01-30T12:47:24;101774.94;;;3.97;71.92
33845;BME280;20145;43.118;25.694;2024-01-30T12:49:51;101773.66;;;4.06;72.33
33845;BME280;20145;43.118;25.694;2024-01-30T12:52:21;101762.16;;;3.97;71.75
33845;BME280;20145;43.118;25.694;2024-01-30T12:54:48;101749.72;;;4.03;71.68
33845;BME280;20145;43.118;25.694;2024-01-30T12:57:14;101775.09;;;4.17;71.61
33845;BME280;20145;43.118;25.694;2024-01-30T12:59:40;101756.50;;;4.19;71.37